Time;durP1;ratioP1;P1;durP2;ratioP2;P2;SDS_P1;SDS_P2;PMS_P1;PMS_P2;Temp;Humidity;BMP_temperature;BMP_pressure;BME280_temperature;BME280_humidity;BME280_pressure;Samples;Min_cycle;Max_cycle;Signal;HPM_P1;HPM_P2
2022/06/03 00:00:24;;;;;;;1.17;0.90;;;17.70;1.00;;;;;;5137964;27;20447;-75
2022/06/03 00:03:17;;;;;;;1.10;0.83;;;17.70;1.00;;;;;;5138360;27;20456;-75
2022/06/03 00:06:05;;;;;;;0.90;0.70;;;17.80;99.90;;;;;;5138944;27;20463;-75
2022/06/03 00:09:23;;;;;;;1.13;0.90;;;17.80;99.90;;;;;;5139105;27;20447;-75
2022/06/03 00:12:19;;;;;;;1.20;0.87;;;17.80;99.90;;;;;;5139005;27;20515;-76
2022/06/03 00:15:10;;;;;;;0.97;0.80;;;17.90;99.90;;;;;;5139446;27;20477;-75
2022/06/03 00:18:19;;;;;;;1.50;0.90;;;18.00;99.90;;;;;;5138621;27;20455;-75
2022/06/03 00:20:59;;;;;;;1.70;0.90;;;18.10;16.90;;;;;;5073086;27;20731;-75
2022/06/03 00:23:55;;;;;;;1.20;0.90;;;18.10;1.00;;;;;;5138979;27;20443;-75
2022/06/03 00:26:48;;;;;;;0.80;0.80;;;18.10;80.40;;;;;;5138832;27;20440;-75
2022/06/03 00:29:38;;;;;;;1.17;1.00;;;18.00;99.90;;;;;;5138299;27;20719;-75
2022/06/03 00:32:50;;;;;;;1.20;0.80;;;17.90;1.00;;;;;;5136808;27;20472;-75
2022/06/03 00:35:46;;;;;;;1.40;0.83;;;17.90;99.90;;;;;;5093032;28;20449;-74
2022/06/03 00:38:38;;;;;;;1.30;1.00;;;17.80;1.00;;;;;;5135232;27;20504;-75
2022/06/03 00:41:26;;;;;;;1.20;0.90;;;17.80;99.90;;;;;;5136590;27;20440;-75
2022/06/03 00:44:30;;;;;;;1.90;0.90;;;17.70;1.00;;;;;;5136237;27;21085;-74
2022/06/03 00:47:12;;;;;;;1.20;1.00;;;17.70;1.00;;;;;;5136081;27;20456;-75
2022/06/03 00:50:00;;;;;;;1.20;0.90;;;17.70;1.00;;;;;;5137049;27;20505;-74
2022/06/03 00:53:05;;;;;;;1.00;0.83;;;17.60;1.00;;;;;;5136863;27;20947;-74
2022/06/03 00:55:57;;;;;;;1.83;1.00;;;17.60;1.00;;;;;;5136394;27;20431;-75
2022/06/03 00:58:58;;;;;;;1.43;1.00;;;17.50;1.00;;;;;;5137570;27;20444;-75
2022/06/03 01:01:30;;;;;;;3.20;1.10;;;17.50;99.90;;;;;;5126877;27;20512;-75
2022/06/03 01:04:36;;;;;;;1.90;1.03;;;17.50;99.90;;;;;;5138256;27;20451;-74
2022/06/03 01:07:13;;;;;;;1.80;1.00;;;17.60;99.90;;;;;;5137720;27;20941;-75
2022/06/03 01:10:09;;;;;;;1.90;1.00;;;17.50;91.90;;;;;;5138050;27;20424;-75
2022/06/03 01:12:58;;;;;;;1.90;1.00;;;17.40;99.90;;;;;;5137476;27;20490;-75
2022/06/03 01:15:34;;;;;;;1.33;1.00;;;17.40;1.00;;;;;;5137691;27;20447;-75
2022/06/03 01:18:17;;;;;;;1.40;0.90;;;17.20;1.00;;;;;;5135723;27;20451;-75
2022/06/03 01:21:01;;;;;;;1.07;0.90;;;17.10;99.90;;;;;;5137191;27;20435;-75
2022/06/03 01:24:05;;;;;;;1.27;0.80;;;16.90;99.90;;;;;;5136243;27;20950;-75
2022/06/03 01:26:48;;;;;;;1.00;0.83;;;16.80;1.00;;;;;;5120831;27;20471;-75
2022/06/03 01:29:40;;;;;;;1.37;0.90;;;16.90;1.00;;;;;;5136325;27;20443;-75
2022/06/03 01:32:49;;;;;;;2.60;0.90;;;16.90;99.90;;;;;;5135775;27;20665;-75
2022/06/03 01:35:43;;;;;;;1.63;1.00;;;16.80;99.90;;;;;;5128584;27;20457;-75
2022/06/03 01:38:22;;;;;;;1.07;0.80;;;16.70;1.00;;;;;;5134615;27;20516;-74
2022/06/03 01:41:10;;;;;;;2.40;0.90;;;16.70;1.00;;;;;;5136054;27;20454;-74
2022/06/03 01:43:53;;;;;;;1.20;0.90;;;16.70;1.00;;;;;;5136603;27;20523;-75
2022/06/03 01:46:26;;;;;;;1.10;1.00;;;16.70;1.00;;;;;;5137066;27;20485;-75
2022/06/03 01:49:16;;;;;;;1.47;0.90;;;16.70;1.00;;;;;;5137777;27;20453;-75
2022/06/03 01:52:13;;;;;;;0.90;0.80;;;16.70;8.50;;;;;;5137868;27;20489;-75
2022/06/03 01:55:09;;;;;;;1.13;0.90;;;16.60;99.90;;;;;;5136216;27;20440;-75
2022/06/03 01:58:08;;;;;;;1.10;0.90;;;16.60;99.90;;;;;;5127238;27;20456;-75
2022/06/03 02:00:38;;;;;;;2.87;0.90;;;16.70;99.90;;;;;;5133525;27;20542;-75
2022/06/03 02:03:39;;;;;;;1.43;0.90;;;16.70;99.90;;;;;;5136097;27;20455;-75
2022/06/03 02:06:47;;;;;;;1.37;1.00;;;16.80;99.90;;;;;;5117853;27;20918;-75
2022/06/03 02:10:03;;;;;;;1.17;0.90;;;16.80;1.00;;;;;;5109339;27;20448;-74
2022/06/03 02:13:01;;;;;;;1.10;0.80;;;16.90;1.00;;;;;;5126626;27;20479;-75
2022/06/03 02:15:57;;;;;;;1.77;0.87;;;16.90;99.90;;;;;;5123856;27;20447;-74
2022/06/03 02:19:06;;;;;;;1.30;1.03;;;16.90;99.90;;;;;;5133618;27;20497;-75
2022/06/03 02:21:54;;;;;;;1.73;1.00;;;17.00;1.00;;;;;;5126887;27;20451;-75
2022/06/03 02:24:50;;;;;;;1.10;1.00;;;16.90;1.00;;;;;;5136050;27;20891;-75
2022/06/03 02:27:51;;;;;;;1.10;1.00;;;17.00;99.90;;;;;;5136101;27;20447;-75
2022/06/03 02:30:54;;;;;;;1.00;0.90;;;17.00;1.00;;;;;;5136151;27;20906;-75
2022/06/03 02:33:49;;;;;;;1.10;0.90;;;16.90;1.00;;;;;;5136913;27;20585;-75
2022/06/03 02:36:59;;;;;;;1.20;0.90;;;16.90;1.00;;;;;;5136786;27;20749;-75
2022/06/03 02:39:57;;;;;;;1.00;0.90;;;16.80;1.00;;;;;;5137082;27;20905;-75
2022/06/03 02:43:08;;;;;;;1.03;0.87;;;16.80;1.00;;;;;;5136825;27;20534;-75
2022/06/03 02:46:07;;;;;;;1.50;0.90;;;16.70;99.90;;;;;;5137384;27;20522;-74
2022/06/03 02:49:11;;;;;;;1.20;1.00;;;16.60;99.90;;;;;;5137222;27;20508;-75
2022/06/03 02:52:28;;;;;;;1.30;1.00;;;16.60;99.90;;;;;;5137073;27;20476;-75
2022/06/03 02:55:26;;;;;;;1.00;0.80;;;16.70;99.90;;;;;;5073746;28;20445;-75
2022/06/03 02:58:13;;;;;;;1.30;1.00;;;16.70;99.90;;;;;;5135641;27;20898;-75
2022/06/03 03:01:12;;;;;;;2.70;0.90;;;16.60;99.90;;;;;;5136676;27;20439;-75
2022/06/03 03:04:17;;;;;;;2.33;0.90;;;16.60;99.90;;;;;;5137148;27;20874;-75
2022/06/03 03:07:27;;;;;;;1.47;1.00;;;16.80;80.20;;;;;;5094911;28;20490;-74
2022/06/03 03:10:06;;;;;;;1.00;0.80;;;16.70;42.50;;;;;;5117606;28;20444;-75
2022/06/03 03:12:56;;;;;;;1.23;0.90;;;16.70;1.00;;;;;;5119599;28;20488;-75
2022/06/03 03:15:57;;;;;;;1.40;0.97;;;16.80;99.90;;;;;;5119550;28;21027;-75
2022/06/03 03:19:08;;;;;;;1.30;0.83;;;16.80;99.90;;;;;;5118337;28;20491;-75
2022/06/03 03:22:26;;;;;;;1.20;1.00;;;16.90;1.00;;;;;;5117093;28;20454;-75
2022/06/03 03:25:17;;;;;;;1.10;0.90;;;16.80;1.00;;;;;;5072577;28;20438;-75
2022/06/03 03:28:09;;;;;;;1.90;1.03;;;16.70;99.90;;;;;;5073860;28;20582;-75
2022/06/03 03:30:42;;;;;;;1.30;1.00;;;16.60;99.90;;;;;;5113043;28;20444;-75
2022/06/03 03:33:23;;;;;;;2.27;1.00;;;16.60;99.90;;;;;;5117452;28;20484;-75
2022/06/03 03:36:15;;;;;;;1.17;0.90;;;16.60;99.90;;;;;;5118673;28;20452;-75
2022/06/03 03:39:06;;;;;;;1.30;1.00;;;16.50;99.90;;;;;;5119524;28;20463;-75
2022/06/03 03:42:19;;;;;;;1.03;0.83;;;16.50;99.90;;;;;;5118085;28;20449;-75
2022/06/03 03:45:18;;;;;;;1.20;0.87;;;16.50;99.90;;;;;;5118129;28;20451;-75
2022/06/03 03:48:28;;;;;;;1.37;1.10;;;16.50;99.90;;;;;;5118076;28;20474;-75
2022/06/03 03:51:11;;;;;;;1.30;0.90;;;16.60;1.00;;;;;;5117982;28;20453;-75
2022/06/03 03:54:03;;;;;;;1.20;0.90;;;16.60;1.00;;;;;;5118169;28;20542;-75
2022/06/03 03:57:22;;;;;;;1.30;0.90;;;16.60;99.90;;;;;;5117753;28;20903;-75
2022/06/03 04:00:36;;;;;;;1.27;1.03;;;16.60;1.00;;;;;;5118044;27;20513;-75
2022/06/03 04:03:40;;;;;;;1.00;0.90;;;16.60;99.90;;;;;;5118698;28;20771;-75
2022/06/03 04:06:39;;;;;;;1.57;1.10;;;16.60;99.90;;;;;;5118575;28;20476;-75
2022/06/03 04:09:49;;;;;;;1.00;0.87;;;16.60;99.90;;;;;;5118961;28;20456;-76
2022/06/03 04:13:07;;;;;;;1.03;0.90;;;16.60;99.90;;;;;;5118315;28;20448;-75
2022/06/03 04:16:04;;;;;;;0.83;0.73;;;16.60;99.90;;;;;;5118000;28;20445;-75
2022/06/03 04:19:08;;;;;;;1.00;0.83;;;16.50;1.00;;;;;;5079698;28;20464;-75
2022/06/03 04:22:07;;;;;;;3.00;1.00;;;16.60;99.90;;;;;;5117930;28;20444;-75
2022/06/03 04:25:24;;;;;;;1.13;0.87;;;16.50;1.00;;;;;;5117456;28;20459;-75
2022/06/03 04:28:23;;;;;;;2.43;0.90;;;16.60;1.00;;;;;;5114489;28;20436;-75
2022/06/03 04:31:35;;;;;;;1.30;1.00;;;16.60;99.90;;;;;;5115040;28;20441;-75
2022/06/03 04:34:44;;;;;;;1.40;1.00;;;16.60;99.90;;;;;;5116340;28;20542;-75
2022/06/03 04:37:56;;;;;;;1.57;1.20;;;16.70;99.90;;;;;;5100260;28;20798;-75
2022/06/03 04:41:04;;;;;;;1.20;1.00;;;16.80;99.90;;;;;;5019531;28;20452;-75
2022/06/03 04:44:14;;;;;;;1.67;1.00;;;16.80;99.90;;;;;;5066107;28;20796;-75
2022/06/03 04:47:11;;;;;;;1.40;1.00;;;16.90;99.90;;;;;;5114331;28;20458;-75
2022/06/03 04:50:13;;;;;;;1.30;1.20;;;17.00;1.00;;;;;;5115068;28;20443;-75
2022/06/03 04:53:17;;;;;;;1.77;1.07;;;17.00;1.00;;;;;;5114473;27;21062;-75
2022/06/03 04:56:24;;;;;;;1.20;1.00;;;16.90;99.90;;;;;;5116794;28;20462;-74
2022/06/03 04:59:24;;;;;;;1.93;1.10;;;17.00;99.90;;;;;;5116670;28;20875;-75
2022/06/03 05:02:32;;;;;;;2.07;1.20;;;17.00;93.70;;;;;;5070294;28;20459;-75
2022/06/03 05:05:28;;;;;;;1.93;1.10;;;17.00;94.30;;;;;;5116571;27;20757;-75
2022/06/03 05:08:49;;;;;;;1.90;1.37;;;16.90;99.90;;;;;;5156140;27;20535;-75
2022/06/03 05:11:53;;;;;;;2.30;1.27;;;16.90;99.90;;;;;;5156256;27;20443;-75
2022/06/03 05:14:58;;;;;;;1.30;1.10;;;16.90;99.90;;;;;;5071336;27;20769;-75
2022/06/03 05:17:43;;;;;;;1.60;1.20;;;17.00;99.90;;;;;;5154704;27;20446;-75
2022/06/03 05:20:53;;;;;;;1.47;1.30;;;17.00;99.90;;;;;;5155769;27;20783;-75
2022/06/03 05:23:55;;;;;;;1.80;1.10;;;17.10;99.90;;;;;;5147393;27;20459;-74
2022/06/03 05:26:40;;;;;;;2.30;1.57;;;17.20;99.90;;;;;;5153954;27;20430;-74
2022/06/03 05:29:40;;;;;;;2.40;1.43;;;17.20;99.90;;;;;;5154831;27;20450;-74
2022/06/03 05:32:44;;;;;;;1.20;1.10;;;17.20;99.90;;;;;;5154743;27;20447;-75
2022/06/03 05:35:54;;;;;;;1.23;1.00;;;17.30;1.00;;;;;;5152949;27;20989;-74
2022/06/03 05:38:45;;;;;;;6.13;1.30;;;17.30;2.20;;;;;;5152040;27;20447;-75
2022/06/03 05:44:23;;;;;;;1.43;1.20;;;17.50;1.00;;;;;;5150972;27;20573;-77
2022/06/03 05:47:00;;;;;;;1.20;1.10;;;17.60;1.00;;;;;;5152602;27;20443;-76
2022/06/03 05:49:40;;;;;;;1.77;1.20;;;17.70;1.00;;;;;;5155030;27;20492;-75
2022/06/03 05:52:39;;;;;;;2.93;1.67;;;17.90;1.00;;;;;;5153815;27;20443;-76
2022/06/03 05:55:17;;;;;;;1.80;1.47;;;18.00;99.90;;;;;;5154653;27;20535;-75
2022/06/03 05:57:58;;;;;;;3.50;1.40;;;18.10;99.90;;;;;;5156215;27;20455;-76
2022/06/03 06:00:47;;;;;;;3.17;1.97;;;18.10;99.90;;;;;;5135511;27;20901;-75
2022/06/03 06:03:25;;;;;;;1.30;1.10;;;18.10;67.60;;;;;;5131554;27;20500;-74
2022/06/03 06:06:09;;;;;;;2.10;2.00;;;18.20;1.00;;;;;;5115380;28;20476;-74
2022/06/03 06:08:50;;;;;;;1.50;1.40;;;18.20;96.90;;;;;;5117021;27;20446;-74
2022/06/03 06:11:26;;;;;;;1.83;1.50;;;18.20;99.90;;;;;;5135562;27;20486;-74
2022/06/03 06:14:22;;;;;;;2.10;1.50;;;18.20;99.90;;;;;;5137723;27;20503;-73
2022/06/03 06:16:49;;;;;;;2.90;1.67;;;18.30;10.60;;;;;;5132755;28;20810;-75
2022/06/03 06:19:29;;;;;;;1.80;1.30;;;18.40;1.00;;;;;;5134911;27;20444;-74
2022/06/03 06:22:09;;;;;;;1.70;1.50;;;18.40;1.00;;;;;;5134443;27;20447;-74
2022/06/03 06:24:52;;;;;;;1.83;1.53;;;18.60;1.00;;;;;;5133502;27;20444;-73
2022/06/03 06:27:57;;;;;;;2.90;1.40;;;18.70;1.00;;;;;;5134871;28;20899;-74
2022/06/03 06:30:49;;;;;;;1.40;1.30;;;18.80;1.00;;;;;;5131857;27;20444;-73
2022/06/03 06:33:41;;;;;;;1.73;1.37;;;18.90;1.00;;;;;;5132391;27;20472;-72
2022/06/03 06:36:34;;;;;;;2.10;1.60;;;19.00;1.00;;;;;;5133060;28;20602;-72
2022/06/03 06:39:10;;;;;;;3.43;1.73;;;19.10;1.00;;;;;;5133931;28;20456;-73
2022/06/03 06:41:51;;;;;;;1.63;1.30;;;19.30;1.00;;;;;;5131352;27;20471;-72
2022/06/03 06:44:33;;;;;;;2.03;1.47;;;19.50;1.00;;;;;;5135645;27;20434;-72
2022/06/03 06:47:09;;;;;;;1.63;1.20;;;19.70;1.00;;;;;;5136054;27;20451;-74
2022/06/03 06:49:41;;;;;;;1.40;1.20;;;19.80;99.90;;;;;;5134403;27;20447;-73
2022/06/03 06:52:37;;;;;;;1.47;1.30;;;19.80;99.90;;;;;;5135177;27;20448;-72
2022/06/03 06:55:13;;;;;;;1.70;1.10;;;20.00;99.90;;;;;;5136466;27;20930;-72
2022/06/03 06:57:45;;;;;;;1.63;1.20;;;20.10;99.90;;;;;;5134586;27;20455;-72
2022/06/03 07:00:19;;;;;;;2.07;1.17;;;20.20;6.50;;;;;;5134952;27;20479;-72
2022/06/03 07:02:51;;;;;;;5.63;1.50;;;20.20;1.00;;;;;;5134670;27;20537;-72
2022/06/03 07:05:24;;;;;;;1.67;1.03;;;20.20;1.00;;;;;;5134466;27;20516;-72
2022/06/03 07:07:57;;;;;;;1.70;1.40;;;20.30;1.00;;;;;;5134511;27;20876;-72
2022/06/03 07:10:28;;;;;;;2.53;1.20;;;20.40;1.00;;;;;;5134548;27;20493;-72
2022/06/03 07:13:04;;;;;;;1.70;1.30;;;20.50;1.00;;;;;;5134118;27;20447;-71
2022/06/03 07:15:45;;;;;;;1.67;1.30;;;20.60;1.00;;;;;;5135178;27;20506;-70
2022/06/03 07:21:17;;;;;;;1.50;1.10;;;20.80;1.00;;;;;;5135822;27;20427;-72
2022/06/03 07:23:50;;;;;;;1.10;0.90;;;20.90;1.00;;;;;;5135802;27;20504;-70
2022/06/03 07:26:34;;;;;;;1.30;1.00;;;20.90;1.00;;;;;;5136818;27;20483;-72
2022/06/03 07:29:11;;;;;;;1.30;1.10;;;21.00;99.90;;;;;;5131191;27;20459;-72
2022/06/03 07:31:43;;;;;;;1.03;0.93;;;21.30;99.90;;;;;;5136033;27;20793;-71
2022/06/03 07:34:16;;;;;;;3.30;1.00;;;21.40;99.90;;;;;;5145066;27;20479;-71
2022/06/03 07:36:49;;;;;;;1.40;0.90;;;21.50;99.90;;;;;;5138705;27;20504;-71
2022/06/03 07:39:49;;;;;;;2.40;0.97;;;21.60;99.90;;;;;;5137964;27;20448;-70
2022/06/03 07:42:28;;;;;;;1.27;1.00;;;21.90;99.90;;;;;;5122498;27;20523;-72
2022/06/03 07:45:20;;;;;;;1.83;0.90;;;22.00;99.90;;;;;;5136827;27;20436;-72
2022/06/03 07:47:47;;;;;;;1.20;0.90;;;22.30;99.90;;;;;;5149697;27;20844;-72
2022/06/03 07:50:19;;;;;;;1.07;0.90;;;22.30;33.10;;;;;;5137342;27;20436;-71
2022/06/03 07:52:50;;;;;;;1.10;0.90;;;22.40;54.70;;;;;;5137537;27;20467;-72
2022/06/03 07:55:23;;;;;;;1.23;0.90;;;22.50;35.80;;;;;;5137123;27;20536;-71
2022/06/03 07:57:52;;;;;;;4.47;3.10;;;22.70;8.10;;;;;;5137680;27;20935;-71
2022/06/03 08:00:22;;;;;;;1.60;1.40;;;22.70;1.10;;;;;;5138191;27;20452;-71
2022/06/03 08:03:08;;;;;;;1.60;1.10;;;22.70;1.00;;;;;;5137049;27;20456;-71
2022/06/03 08:05:35;;;;;;;1.20;0.90;;;22.80;1.00;;;;;;5136228;27;20476;-71
2022/06/03 08:10:58;;;;;;;1.60;1.10;;;22.90;1.00;;;;;;5098322;27;20444;-72
2022/06/03 08:13:25;;;;;;;1.60;1.07;;;22.70;1.00;;;;;;5114731;27;20466;-72
2022/06/03 08:15:57;;;;;;;1.10;1.00;;;22.80;1.00;;;;;;5130507;27;20479;-71
2022/06/03 08:18:28;;;;;;;2.50;1.57;;;23.00;1.00;;;;;;5134196;27;20479;-71
2022/06/03 08:20:59;;;;;;;3.23;1.10;;;23.00;1.00;;;;;;5131801;27;20452;-70
2022/06/03 08:23:30;;;;;;;1.90;1.20;;;23.10;1.00;;;;;;5141266;27;20453;-72
2022/06/03 08:26:00;;;;;;;1.73;0.90;;;23.30;1.00;;;;;;5134328;27;20953;-72
2022/06/03 08:28:31;;;;;;;0.93;0.83;;;23.40;1.00;;;;;;5136149;27;20467;-72
2022/06/03 08:31:03;;;;;;;1.53;1.00;;;23.40;1.00;;;;;;5133949;27;20891;-72
2022/06/03 08:33:39;;;;;;;1.30;1.00;;;23.50;1.00;;;;;;5135906;27;20452;-72
2022/06/03 08:36:07;;;;;;;1.47;1.20;;;23.60;1.00;;;;;;5120547;27;20471;-72
2022/06/03 08:38:39;;;;;;;2.23;0.97;;;23.70;1.00;;;;;;5137017;27;20536;-72
2022/06/03 08:41:26;;;;;;;2.10;1.07;;;23.60;1.00;;;;;;5135940;27;20975;-72
2022/06/03 08:44:18;;;;;;;2.30;1.20;;;23.80;1.00;;;;;;5135358;27;20573;-73
2022/06/03 08:46:54;;;;;;;6.03;5.43;;;23.90;1.00;;;;;;5136002;27;20815;-71
2022/06/03 08:49:26;;;;;;;1.47;1.37;;;24.00;1.00;;;;;;5134511;27;20435;-72
2022/06/03 08:52:00;;;;;;;1.27;1.07;;;24.10;1.00;;;;;;5133402;27;20449;-72
2022/06/03 08:54:32;;;;;;;2.07;1.00;;;24.20;1.00;;;;;;5134988;27;20484;-71
2022/06/03 08:57:06;;;;;;;1.10;1.00;;;24.20;1.00;;;;;;5134456;27;20447;-70
2022/06/03 08:59:40;;;;;;;3.10;1.10;;;24.40;1.00;;;;;;5134729;27;20439;-71
2022/06/03 09:02:12;;;;;;;1.23;1.13;;;24.60;1.00;;;;;;5118291;27;20436;-73
2022/06/03 09:04:47;;;;;;;2.87;1.20;;;24.80;1.00;;;;;;5133859;27;20447;-70
2022/06/03 09:07:20;;;;;;;1.77;1.20;;;25.00;1.00;;;;;;5133352;27;20491;-71
2022/06/03 09:09:52;;;;;;;1.67;1.10;;;25.20;1.00;;;;;;5131725;27;20454;-71
2022/06/03 09:12:37;;;;;;;3.57;1.30;;;25.30;1.00;;;;;;5135588;27;20906;-72
2022/06/03 09:15:10;;;;;;;3.27;3.07;;;25.30;1.00;;;;;;5137195;27;20479;-71
2022/06/03 09:17:45;;;;;;;1.53;1.20;;;25.30;1.00;;;;;;5129634;27;20479;-71
2022/06/03 09:20:15;;;;;;;1.10;0.90;;;25.30;1.00;;;;;;5132750;27;20440;-70
2022/06/03 09:22:44;;;;;;;2.00;1.10;;;25.50;1.00;;;;;;5134407;27;20949;-71
2022/06/03 09:25:13;;;;;;;1.13;0.93;;;25.50;1.00;;;;;;5139591;27;20444;-72
2022/06/03 09:27:41;;;;;;;1.03;0.93;;;25.70;1.00;;;;;;5128793;27;20443;-72
2022/06/03 09:30:11;;;;;;;1.13;0.80;;;25.90;1.00;;;;;;5134105;27;21065;-72
2022/06/03 09:32:47;;;;;;;1.37;0.90;;;26.10;1.00;;;;;;5125563;27;20461;-71
2022/06/03 09:35:17;;;;;;;1.00;0.80;;;26.30;1.00;;;;;;5133285;27;20926;-70
2022/06/03 09:37:47;;;;;;;0.87;0.80;;;26.20;1.00;;;;;;5134764;27;20447;-71
2022/06/03 09:40:18;;;;;;;1.23;0.90;;;26.30;1.00;;;;;;5135285;27;20500;-71
2022/06/03 09:42:52;;;;;;;0.80;0.80;;;26.40;1.00;;;;;;5131441;27;20460;-71
2022/06/03 09:45:20;;;;;;;1.00;0.90;;;26.50;1.00;;;;;;5134260;27;20463;-71
2022/06/03 09:47:50;;;;;;;1.17;0.90;;;26.40;1.00;;;;;;5133196;27;20962;-72
2022/06/03 09:50:19;;;;;;;1.17;1.03;;;26.30;1.00;;;;;;5126609;27;20988;-72
2022/06/03 09:52:48;;;;;;;1.20;1.00;;;26.40;1.00;;;;;;5131588;27;20833;-72
2022/06/03 09:55:25;;;;;;;1.27;1.10;;;26.50;1.00;;;;;;5133489;27;20483;-72
2022/06/03 09:57:57;;;;;;;2.07;1.10;;;26.60;1.00;;;;;;5134290;27;20504;-72
2022/06/03 10:00:28;;;;;;;1.33;1.10;;;26.90;1.00;;;;;;5133178;27;20448;-72
2022/06/03 10:03:00;;;;;;;6.83;1.10;;;27.10;1.00;;;;;;5129323;27;20509;-72
2022/06/03 10:05:27;;;;;;;1.53;1.13;;;27.20;1.00;;;;;;5124151;27;20874;-72
2022/06/03 10:08:00;;;;;;;1.10;0.90;;;27.50;1.00;;;;;;5110581;28;20513;-71
2022/06/03 10:13:12;;;;;;;1.20;1.10;;;28.20;1.00;;;;;;5111553;28;20447;-72
2022/06/03 10:15:45;;;;;;;1.30;1.20;;;28.40;1.00;;;;;;5112709;28;20931;-70
2022/06/03 10:18:29;;;;;;;1.20;1.10;;;28.60;1.00;;;;;;5108437;28;20472;-71
2022/06/03 10:20:58;;;;;;;1.60;0.93;;;29.10;1.00;;;;;;5111545;28;20476;-72
2022/06/03 10:23:32;;;;;;;1.10;0.90;;;29.30;1.00;;;;;;5110528;28;21065;-72
2022/06/03 10:26:01;;;;;;;1.23;1.10;;;29.60;1.00;;;;;;5107562;28;20488;-72
2022/06/03 10:28:34;;;;;;;1.20;1.10;;;29.40;1.00;;;;;;5112261;28;21055;-70
2022/06/03 10:31:06;;;;;;;1.20;1.00;;;29.30;1.00;;;;;;5112352;28;20457;-71
2022/06/03 10:33:35;;;;;;;1.10;1.00;;;29.50;1.00;;;;;;5113725;28;20445;-72
2022/06/03 10:36:05;;;;;;;1.80;1.60;;;29.60;1.00;;;;;;5110475;28;20481;-71
2022/06/03 10:38:36;;;;;;;2.73;1.53;;;29.60;1.00;;;;;;5112624;28;20730;-71
2022/06/03 10:41:06;;;;;;;4.07;1.10;;;29.90;1.00;;;;;;5113446;28;20502;-72
2022/06/03 10:43:36;;;;;;;1.00;0.90;;;30.40;1.00;;;;;;5112480;28;20491;-71
2022/06/03 10:46:15;;;;;;;1.27;1.17;;;30.80;1.00;;;;;;5109801;28;20843;-71
2022/06/03 10:48:44;;;;;;;1.30;1.00;;;30.70;1.00;;;;;;5111363;28;20484;-74
2022/06/03 10:51:18;;;;;;;1.03;0.93;;;30.70;1.00;;;;;;5091384;28;20433;-73
2022/06/03 11:02:29;;;;;;;1.27;0.90;;;30.70;1.00;;;;;;5092220;28;20486;-73
2022/06/03 11:05:08;;;;;;;1.00;0.80;;;31.20;1.00;;;;;;5091576;28;20449;-72
2022/06/03 11:07:36;;;;;;;1.47;0.90;;;30.80;1.00;;;;;;5092790;28;20495;-72
2022/06/03 11:10:06;;;;;;;1.00;0.90;;;30.60;1.00;;;;;;5093668;28;20552;-73
2022/06/03 11:12:33;;;;;;;0.90;0.80;;;30.40;1.00;;;;;;5109477;28;20441;-73
2022/06/03 11:15:00;;;;;;;1.80;1.50;;;29.90;1.00;;;;;;5106676;28;20487;-72
2022/06/03 11:17:35;;;;;;;1.67;0.90;;;29.60;1.00;;;;;;5116512;28;20501;-72
2022/06/03 11:20:19;;;;;;;1.10;0.90;;;29.20;1.00;;;;;;5111583;28;20511;-72
2022/06/03 11:22:46;;;;;;;1.73;1.03;;;28.60;1.00;;;;;;5114248;28;20451;-72
2022/06/03 11:25:21;;;;;;;1.57;1.20;;;28.00;1.00;;;;;;5119477;28;20460;-71
2022/06/03 11:27:53;;;;;;;2.50;1.20;;;27.60;1.00;;;;;;5111612;28;20451;-72
2022/06/03 11:30:28;;;;;;;1.03;0.93;;;27.60;1.00;;;;;;5112569;28;20513;-72
2022/06/03 11:33:03;;;;;;;0.90;0.87;;;27.40;1.00;;;;;;5116376;28;20452;-73
2022/06/03 11:35:38;;;;;;;0.87;0.80;;;27.40;1.00;;;;;;5115118;27;21098;-73
2022/06/03 11:38:08;;;;;;;1.10;1.00;;;27.40;1.00;;;;;;5113091;28;20484;-72
2022/06/03 11:40:39;;;;;;;1.10;1.00;;;27.30;1.00;;;;;;5114784;28;20453;-73
2022/06/03 11:43:12;;;;;;;1.00;0.90;;;27.20;1.00;;;;;;5115269;28;20452;-72
2022/06/03 11:45:44;;;;;;;0.90;0.80;;;27.00;1.00;;;;;;5111761;28;20506;-72
2022/06/03 11:48:22;;;;;;;1.00;0.90;;;27.00;1.00;;;;;;5107014;28;20517;-73
2022/06/03 11:50:50;;;;;;;1.37;1.00;;;27.00;1.00;;;;;;5110889;28;20452;-72
2022/06/03 11:53:24;;;;;;;2.20;1.00;;;26.90;1.00;;;;;;5096111;28;20433;-72
2022/06/03 11:55:53;;;;;;;2.80;1.03;;;26.80;1.00;;;;;;5098210;28;20483;-72
2022/06/03 11:58:24;;;;;;;1.20;0.90;;;26.70;1.00;;;;;;5112391;28;20551;-71
2022/06/03 12:01:00;;;;;;;1.37;1.07;;;26.70;1.00;;;;;;5115518;28;20429;-72
2022/06/03 12:03:38;;;;;;;1.83;0.90;;;26.80;1.00;;;;;;5116405;28;20869;-72
2022/06/03 12:06:11;;;;;;;1.00;0.90;;;26.70;1.00;;;;;;5126030;27;20613;-71
2022/06/03 12:08:47;;;;;;;1.13;1.00;;;26.90;1.00;;;;;;5134057;27;20448;-72
2022/06/03 12:14:19;;;;;;;1.07;0.97;;;27.10;1.00;;;;;;5134752;27;20423;-71
2022/06/03 12:16:55;;;;;;;1.90;1.53;;;27.20;1.00;;;;;;5136378;27;20490;-71
2022/06/03 12:19:37;;;;;;;1.33;1.10;;;27.20;1.00;;;;;;5135627;27;20451;-72
2022/06/03 12:22:34;;;;;;;1.43;1.33;;;27.30;1.00;;;;;;5135140;27;20487;-73
2022/06/03 12:25:01;;;;;;;1.70;1.00;;;27.50;1.00;;;;;;5134337;27;20463;-72
2022/06/03 12:27:33;;;;;;;1.17;1.07;;;27.60;1.00;;;;;;5133658;27;20778;-72
2022/06/03 12:30:32;;;;;;;1.10;1.00;;;27.60;1.00;;;;;;5133593;27;20916;-73
2022/06/03 12:33:03;;;;;;;2.17;1.00;;;27.70;1.00;;;;;;5136889;27;20455;-73
2022/06/03 12:35:59;;;;;;;1.47;0.90;;;27.60;1.00;;;;;;5136137;27;20574;-72
2022/06/03 12:39:14;;;;;;;3.97;1.60;;;27.60;1.00;;;;;;5136832;27;20845;-72
2022/06/03 12:42:01;;;;;;;1.30;1.03;;;27.60;1.00;;;;;;5135843;27;20508;-75
2022/06/03 12:45:14;;;;;;;1.27;1.00;;;27.60;1.00;;;;;;5136272;27;20439;-75
2022/06/03 12:47:48;;;;;;;1.63;1.53;;;27.50;1.00;;;;;;5135922;27;21088;-74
2022/06/03 12:50:40;;;;;;;1.23;1.00;;;27.60;1.00;;;;;;5134929;27;20436;-74
2022/06/03 12:53:32;;;;;;;2.80;1.00;;;27.50;1.00;;;;;;5133635;27;20459;-74
2022/06/03 12:56:02;;;;;;;1.30;1.10;;;27.50;1.00;;;;;;5135137;27;20536;-76
2022/06/03 12:58:50;;;;;;;1.20;1.00;;;27.30;1.00;;;;;;5134728;27;20424;-74
2022/06/03 13:01:41;;;;;;;1.10;0.90;;;27.20;1.00;;;;;;5135002;27;20487;-75
2022/06/03 13:04:35;;;;;;;1.37;1.10;;;27.10;1.00;;;;;;5113775;27;20456;-74
2022/06/03 13:07:15;;;;;;;2.23;0.97;;;27.00;1.00;;;;;;5131815;27;20634;-75
2022/06/03 13:09:51;;;;;;;1.93;1.30;;;27.00;1.00;;;;;;5134089;27;20812;-75
2022/06/03 13:12:21;;;;;;;1.97;1.00;;;26.90;1.00;;;;;;5134551;27;20454;-75
2022/06/03 13:14:49;;;;;;;1.23;1.10;;;26.60;1.00;;;;;;5133930;27;20442;-76
2022/06/03 13:17:54;;;;;;;1.27;1.10;;;26.70;1.00;;;;;;5135569;27;20511;-74
2022/06/03 13:20:37;;;;;;;1.20;1.10;;;26.70;1.00;;;;;;5136190;27;20440;-76
2022/06/03 13:23:25;;;;;;;2.00;1.20;;;26.50;1.00;;;;;;5135617;27;20899;-75
2022/06/03 13:25:54;;;;;;;2.40;1.17;;;26.50;1.00;;;;;;5135803;27;20440;-74
2022/06/03 13:28:43;;;;;;;3.93;1.20;;;26.20;1.00;;;;;;5134728;27;21142;-75
2022/06/03 13:31:19;;;;;;;1.90;1.20;;;26.00;1.00;;;;;;5119781;27;20470;-75
2022/06/03 13:34:15;;;;;;;2.00;1.30;;;25.90;1.00;;;;;;5135218;27;20443;-76
2022/06/03 13:36:47;;;;;;;1.30;1.20;;;25.70;1.00;;;;;;5123087;27;20650;-76
2022/06/03 13:39:35;;;;;;;2.63;1.37;;;25.60;1.00;;;;;;5128046;27;20456;-72
2022/06/03 13:45:13;;;;;;;1.60;1.10;;;25.50;1.00;;;;;;5124928;27;20431;-72
2022/06/03 13:47:51;;;;;;;1.20;1.10;;;25.50;1.00;;;;;;5117946;27;20441;-72
2022/06/03 13:50:31;;;;;;;4.20;1.00;;;25.50;1.00;;;;;;5120458;27;20443;-73
2022/06/03 13:53:02;;;;;;;1.83;1.20;;;25.70;1.00;;;;;;5135009;27;20447;-71
2022/06/03 13:55:34;;;;;;;1.37;1.20;;;25.70;71.10;;;;;;5136073;27;20440;-71
2022/06/03 13:58:07;;;;;;;3.00;1.10;;;25.80;1.00;;;;;;5132951;27;20922;-70
2022/06/03 14:00:38;;;;;;;1.07;0.97;;;25.80;1.00;;;;;;5134762;27;20455;-71
2022/06/03 14:03:16;;;;;;;1.40;1.20;;;25.70;1.00;;;;;;5135613;27;20456;-71
2022/06/03 14:05:47;;;;;;;1.30;1.20;;;25.70;1.00;;;;;;5133479;27;20459;-72
2022/06/03 14:08:19;;;;;;;1.30;1.20;;;25.50;1.00;;;;;;5136381;27;20438;-72
2022/06/03 14:10:49;;;;;;;1.27;1.17;;;25.30;1.00;;;;;;5153099;27;20439;-72
2022/06/03 14:13:42;;;;;;;1.23;1.00;;;25.30;1.00;;;;;;5143590;27;20755;-71
2022/06/03 14:16:14;;;;;;;1.30;1.20;;;25.10;1.00;;;;;;5133764;27;20483;-73
2022/06/03 14:19:02;;;;;;;1.43;1.10;;;25.10;1.00;;;;;;5133172;28;20481;-72
2022/06/03 14:21:44;;;;;;;1.47;1.37;;;25.10;1.00;;;;;;5130700;28;20455;-74
2022/06/03 14:24:19;;;;;;;2.47;1.20;;;25.00;1.00;;;;;;5134577;28;20479;-70
2022/06/03 14:26:52;;;;;;;1.20;1.00;;;25.00;1.00;;;;;;5133695;28;20520;-70
2022/06/03 14:29:25;;;;;;;2.40;1.00;;;25.00;1.00;;;;;;5136038;27;20909;-72
2022/06/03 14:31:56;;;;;;;1.87;1.20;;;25.00;1.00;;;;;;5154612;27;20957;-72
2022/06/03 14:34:27;;;;;;;2.57;1.00;;;25.10;1.00;;;;;;5153803;27;20445;-71
2022/06/03 14:36:58;;;;;;;1.30;1.20;;;25.00;1.00;;;;;;5144208;27;20482;-71
2022/06/03 14:39:28;;;;;;;1.30;1.07;;;25.00;1.00;;;;;;5133086;28;20447;-71
2022/06/03 14:42:00;;;;;;;1.10;1.00;;;25.00;1.00;;;;;;5132404;28;20462;-71
2022/06/03 14:44:30;;;;;;;1.63;1.20;;;25.10;1.00;;;;;;5131313;28;20503;-71
2022/06/03 14:47:01;;;;;;;1.27;1.17;;;25.30;1.00;;;;;;5132987;28;20448;-72